Charlotte Roush — WDE5112 — position and weather

sailwx.info

Track history (hours):
 
Tides and Currents Weather Stations Pressure Air Temp Water Temp Dewpoint Dewpoint Depression Visibility Wind Speed Wind Dir Waves Ship Positions

Charlotte Roush

Owner: AEP River Operations LLC, Chesterfield, MO. More information available from US FCC via Universal Licensing System and Coast Guard Vessel Documentation Center.

Last reported at 2015-Feb-19 06:20 UTC. Time now 2015-Mar-02 23:17 UTC.
Position N 30°01' W 089°54'.
Warning: this ship's position is 11 days out of date.

Length 35 m; draft 3 m.

Type: Towing. MMSI: 367362230.

Date/timePositionNaut miles runAvg speedWind from/ knotsBaromVisibWave heightAir tempDewpointWater temp
2015-Feb-19 06:20N 30°01' W 089°54'1 0.0
2015-Feb-18 09:11N 30°02' W 089°54'8 1.3
2015-Feb-18 03:14N 29°57' W 090°02'0 0.3
2015-Feb-18 02:33N 29°57' W 090°01'1 0.7
2015-Feb-18 01:21N 29°57' W 090°01'0 0.0
2015-Feb-18 00:31N 29°57' W 090°01'0 0.2
2015-Feb-17 23:29N 29°57' W 090°01'2 2.4
2015-Feb-17 22:33N 29°56' W 090°03'1 0.8
2015-Feb-17 21:32N 29°55' W 090°04'0 0.0
2015-Feb-17 20:33N 29°55' W 090°04'0 0.0
2015-Feb-17 19:33N 29°55' W 090°04'3 1.6
2015-Feb-17 17:32N 29°52' W 090°04'2 2.2
2015-Feb-17 16:32N 29°50' W 090°04'0 0.0
2015-Feb-17 15:05N 29°50' W 090°04'0 0.0
2015-Feb-16 18:25N 29°50' W 090°04'0 0.0
2015-Feb-16 15:18N 29°50' W 090°04'0 0.0
2015-Feb-16 14:31N 29°50' W 090°04'0 0.0
2015-Feb-16 13:31N 29°50' W 090°04'0 0.0
2015-Feb-16 12:33N 29°50' W 090°04'0 0.0
2015-Feb-16 11:33N 29°50' W 090°04'0 0.0
2015-Feb-16 10:33N 29°50' W 090°04'0 0.0
2015-Feb-16 09:33N 29°50' W 090°04'0 0.0
2015-Feb-16 08:34N 29°50' W 090°04'0 0.0
2015-Feb-16 07:24N 29°50' W 090°04'0 0.0
2015-Feb-16 06:29N 29°50' W 090°04'0 0.0
2015-Feb-16 05:27N 29°50' W 090°04'0 0.0
2015-Feb-16 04:33N 29°50' W 090°04'0 0.0
2015-Feb-16 03:22N 29°50' W 090°04'0 0.0
2015-Feb-15 06:30N 29°50' W 090°04'0 0.0
2015-Feb-15 04:28N 29°50' W 090°04'0 0.0
2015-Feb-15 03:24N 29°50' W 090°04'0 0.0
2015-Feb-15 02:22N 29°50' W 090°04'0 0.0
2015-Feb-15 01:23N 29°50' W 090°04'0 0.0
2015-Feb-15 00:12N 29°50' W 090°04'0 0.0
2015-Feb-14 23:31N 29°50' W 090°04'0 0.0
2015-Feb-14 22:24N 29°50' W 090°04'0 0.0
2015-Feb-14 21:32N 29°50' W 090°04'0 0.0
2015-Feb-14 20:31N 29°50' W 090°04'0 0.0
2015-Feb-14 19:29N 29°50' W 090°04'0 0.0
2015-Feb-14 18:20N 29°50' W 090°04'0 0.0
2015-Feb-13 10:24N 29°50' W 090°04'0 0.0
2015-Feb-13 09:32N 29°50' W 090°04'0 0.0
2015-Feb-13 08:24N 29°50' W 090°04'0 0.0
2015-Feb-13 07:33N 29°50' W 090°04'0 0.0
2015-Feb-13 06:33N 29°50' W 090°04'0 0.0
2015-Feb-13 05:33N 29°50' W 090°04'0 0.0
2015-Feb-13 04:29N 29°50' W 090°04'0 0.0
2015-Feb-13 03:26N 29°50' W 090°04'0 0.0
2015-Feb-13 02:33N 29°50' W 090°04'1 0.5
2015-Feb-13 01:22N 29°50' W 090°04'8 3.4
2015-Feb-12 23:04N 29°55' W 089°58'0 0.0
2015-Feb-12 22:33N 29°55' W 089°58'3 2.5
2015-Feb-12 21:30N 29°57' W 090°00'2 1.0
2015-Feb-12 19:16N 29°55' W 089°59'23 2.5
2015-Feb-12 10:14N 29°39' W 090°18'23 3.3
2015-Feb-12 03:20N 29°34' W 090°43'1 0.7
2015-Feb-12 02:10N 29°34' W 090°44'6 3.4
2015-Feb-12 00:19N 29°32' W 090°51'4 4.7
2015-Feb-11 23:28N 29°33' W 090°55'8 4.3
2015-Feb-11 21:34N 29°37' W 091°03'4 4.0
2015-Feb-11 20:34N 29°39' W 091°07'3 3.3
2015-Feb-11 19:33N 29°41' W 091°11'1 0.7
2015-Feb-11 18:34N 29°41' W 091°11'4 3.6
2015-Feb-11 17:33N 29°39' W 091°15'6 5.9
2015-Feb-11 16:31N 29°39' W 091°22'  
Track history (hours):
 
Tides and Currents Weather Stations Pressure Air Temp Water Temp Dewpoint Dewpoint Depression Visibility Wind Speed Wind Dir Waves Ship Positions

Charlotte Roush

Owner: AEP River Operations LLC, Chesterfield, MO. More information available from US FCC via Universal Licensing System and Coast Guard Vessel Documentation Center.

Last reported at 2015-Feb-19 06:20 UTC. Time now 2015-Mar-02 23:17 UTC.
Position N 30°01' W 089°54'.
Warning: this ship's position is 11 days out of date.

Length 35 m; draft 3 m.

Type: Towing. MMSI: 367362230.

Date/timePositionNaut miles runAvg speedWind from/ knotsBaromVisibWave heightAir tempDewpointWater temp
2015-Feb-19 06:20N 30°01' W 089°54'1 0.0
2015-Feb-18 09:11N 30°02' W 089°54'8 1.3
2015-Feb-18 03:14N 29°57' W 090°02'0 0.3
2015-Feb-18 02:33N 29°57' W 090°01'1 0.7
2015-Feb-18 01:21N 29°57' W 090°01'0 0.0
2015-Feb-18 00:31N 29°57' W 090°01'0 0.2
2015-Feb-17 23:29N 29°57' W 090°01'2 2.4
2015-Feb-17 22:33N 29°56' W 090°03'1 0.8
2015-Feb-17 21:32N 29°55' W 090°04'0 0.0
2015-Feb-17 20:33N 29°55' W 090°04'0 0.0
2015-Feb-17 19:33N 29°55' W 090°04'3 1.6
2015-Feb-17 17:32N 29°52' W 090°04'2 2.2
2015-Feb-17 16:32N 29°50' W 090°04'0 0.0
2015-Feb-17 15:05N 29°50' W 090°04'0 0.0
2015-Feb-16 18:25N 29°50' W 090°04'0 0.0
2015-Feb-16 15:18N 29°50' W 090°04'0 0.0
2015-Feb-16 14:31N 29°50' W 090°04'0 0.0
2015-Feb-16 13:31N 29°50' W 090°04'0 0.0
2015-Feb-16 12:33N 29°50' W 090°04'0 0.0
2015-Feb-16 11:33N 29°50' W 090°04'0 0.0
2015-Feb-16 10:33N 29°50' W 090°04'0 0.0
2015-Feb-16 09:33N 29°50' W 090°04'0 0.0
2015-Feb-16 08:34N 29°50' W 090°04'0 0.0
2015-Feb-16 07:24N 29°50' W 090°04'0 0.0
2015-Feb-16 06:29N 29°50' W 090°04'0 0.0
2015-Feb-16 05:27N 29°50' W 090°04'0 0.0
2015-Feb-16 04:33N 29°50' W 090°04'0 0.0
2015-Feb-16 03:22N 29°50' W 090°04'0 0.0
2015-Feb-15 06:30N 29°50' W 090°04'0 0.0
2015-Feb-15 04:28N 29°50' W 090°04'0 0.0
2015-Feb-15 03:24N 29°50' W 090°04'0 0.0
2015-Feb-15 02:22N 29°50' W 090°04'0 0.0
2015-Feb-15 01:23N 29°50' W 090°04'0 0.0
2015-Feb-15 00:12N 29°50' W 090°04'0 0.0
2015-Feb-14 23:31N 29°50' W 090°04'0 0.0
2015-Feb-14 22:24N 29°50' W 090°04'0 0.0
2015-Feb-14 21:32N 29°50' W 090°04'0 0.0
2015-Feb-14 20:31N 29°50' W 090°04'0 0.0
2015-Feb-14 19:29N 29°50' W 090°04'0 0.0
2015-Feb-14 18:20N 29°50' W 090°04'0 0.0
2015-Feb-13 10:24N 29°50' W 090°04'0 0.0
2015-Feb-13 09:32N 29°50' W 090°04'0 0.0
2015-Feb-13 08:24N 29°50' W 090°04'0 0.0
2015-Feb-13 07:33N 29°50' W 090°04'0 0.0
2015-Feb-13 06:33N 29°50' W 090°04'0 0.0
2015-Feb-13 05:33N 29°50' W 090°04'0 0.0
2015-Feb-13 04:29N 29°50' W 090°04'0 0.0
2015-Feb-13 03:26N 29°50' W 090°04'0 0.0
2015-Feb-13 02:33N 29°50' W 090°04'1 0.5
2015-Feb-13 01:22N 29°50' W 090°04'8 3.4
2015-Feb-12 23:04N 29°55' W 089°58'0 0.0
2015-Feb-12 22:33N 29°55' W 089°58'3 2.5
2015-Feb-12 21:30N 29°57' W 090°00'2 1.0
2015-Feb-12 19:16N 29°55' W 089°59'23 2.5
2015-Feb-12 10:14N 29°39' W 090°18'23 3.3
2015-Feb-12 03:20N 29°34' W 090°43'1 0.7
2015-Feb-12 02:10N 29°34' W 090°44'6 3.4
2015-Feb-12 00:19N 29°32' W 090°51'4 4.7
2015-Feb-11 23:28N 29°33' W 090°55'8 4.3
2015-Feb-11 21:34N 29°37' W 091°03'4 4.0
2015-Feb-11 20:34N 29°39' W 091°07'3 3.3
2015-Feb-11 19:33N 29°41' W 091°11'1 0.7
2015-Feb-11 18:34N 29°41' W 091°11'4 3.6
2015-Feb-11 17:33N 29°39' W 091°15'6 5.9
2015-Feb-11 16:31N 29°39' W 091°22'  

Dump ship's entire track history